createdAt,value
2022-12-22T18:41:08.444Z,7.50
2022-12-22T18:42:25.009Z,15.53
2022-12-22T18:43:26.075Z,37.26
2022-12-22T18:44:26.133Z,11.22
2022-12-22T18:45:26.246Z,12.73
2022-12-22T18:46:26.363Z,13.86
2022-12-22T18:51:10.654Z,24.30
2022-12-22T18:53:27.427Z,34.56
2022-12-22T18:54:28.500Z,28.99
2022-12-22T18:55:28.542Z,27.94
2022-12-22T18:56:29.877Z,27.83
2022-12-22T18:57:28.681Z,28.38
2022-12-22T18:58:28.776Z,29.07
2022-12-22T18:59:28.838Z,29.96
2022-12-22T19:00:29.026Z,31.12
2022-12-22T19:01:37.026Z,31.85
2022-12-22T19:02:35.755Z,32.93
2022-12-22T19:03:29.414Z,33.88
2022-12-22T19:04:29.213Z,35.05
2022-12-22T19:05:29.242Z,35.89
2022-12-22T19:06:29.562Z,36.80
2022-12-22T19:07:29.403Z,37.80
2022-12-22T19:08:29.500Z,38.99
2022-12-22T19:09:29.551Z,40.00
2022-12-22T19:10:29.634Z,41.10
2022-12-22T19:11:30.068Z,42.17
2022-12-22T19:12:29.848Z,43.08
2022-12-22T19:13:29.892Z,44.22
2022-12-22T19:14:30.000Z,45.31
2022-12-22T19:15:30.071Z,46.11
2022-12-22T19:16:39.043Z,46.99
2022-12-22T19:17:30.221Z,47.88
2022-12-22T19:18:30.313Z,48.51
2022-12-22T19:19:30.377Z,49.26
2022-12-22T19:20:30.489Z,50.20
2022-12-22T19:21:30.610Z,51.21
2022-12-22T19:22:30.691Z,51.82
2022-12-22T19:23:30.720Z,53.10
2022-12-22T19:24:30.814Z,53.81
2022-12-22T19:25:30.887Z,54.30
2022-12-22T19:26:30.983Z,55.31
2022-12-22T19:27:31.033Z,55.75
2022-12-22T19:28:31.128Z,56.69
2022-12-22T19:29:31.185Z,57.27
2022-12-22T19:30:31.330Z,57.83
2022-12-22T19:31:31.755Z,58.80
2022-12-22T19:32:31.526Z,59.85
2022-12-22T19:33:31.501Z,60.46
2022-12-22T19:34:31.583Z,61.21
2022-12-22T19:35:31.658Z,61.61
